Time;durP1;ratioP1;P1;durP2;ratioP2;P2;SDS_P1;SDS_P2;PMS_P1;PMS_P2;Temp;Humidity;BMP_temperature;BMP_pressure;BME280_temperature;BME280_humidity;BME280_pressure;Samples;Min_cycle;Max_cycle;Signal;HPM_P1;HPM_P2
2023/01/12 00:02:05;;;;;;;;;5.20;3.20;;;;;10.63;71.04;101283.56;5028315;28;45647;-63
2023/01/12 00:04:30;;;;;;;;;4.25;3.00;;;;;10.62;71.10;101278.28;5011837;28;45490;-61
2023/01/12 00:07:00;;;;;;;;;5.50;2.25;;;;;10.44;71.62;101254.91;5028436;28;48234;-62
2023/01/12 00:09:26;;;;;;;;;6.00;3.00;;;;;10.42;71.99;101257.84;5029778;28;45465;-62
2023/01/12 00:11:51;;;;;;;;;11.00;9.25;;;;;10.64;72.42;101288.00;5027411;28;45501;-63
2023/01/12 00:14:17;;;;;;;;;9.00;4.00;;;;;10.64;72.21;101285.28;5045415;28;45385;-63
2023/01/12 00:16:43;;;;;;;;;8.50;4.25;;;;;10.59;72.31;101260.31;5029291;28;46386;-63
2023/01/12 00:19:11;;;;;;;;;7.00;4.75;;;;;10.62;73.02;101256.31;5030061;28;45429;-63
2023/01/12 00:21:45;;;;;;;;;3.60;2.40;;;;;10.49;72.93;101226.84;5029788;28;46034;-64
2023/01/12 00:24:12;;;;;;;;;2.40;2.40;;;;;10.59;72.26;101241.09;5028784;28;45851;-63
2023/01/12 00:26:38;;;;;;;;;4.20;3.40;;;;;10.47;72.41;101226.22;5029384;28;46537;-61
2023/01/12 00:29:04;;;;;;;;;4.50;2.50;;;;;10.63;72.70;101247.03;5029674;28;45490;-63
2023/01/12 00:31:29;;;;;;;;;3.20;2.60;;;;;10.61;72.44;101238.97;5044917;28;45454;-63
2023/01/12 00:33:55;;;;;;;;;4.25;2.00;;;;;10.53;72.02;101234.50;5029722;28;45473;-64
2023/01/12 00:36:20;;;;;;;;;1.50;1.25;;;;;10.60;72.50;101234.53;5027172;28;46263;-62
2023/01/12 00:38:47;;;;;;;;;3.75;2.00;;;;;10.61;72.44;101244.47;5029479;28;45736;-61
2023/01/12 00:45:20;;;;;;;;;4.00;3.00;;;;;10.63;71.90;101239.66;5029642;28;45444;-64
2023/01/12 00:46:42;;;;;;;;;2.00;2.00;;;;;10.67;71.68;101240.94;5010051;28;46074;-63
2023/01/12 00:49:07;;;;;;;;;4.00;2.25;;;;;10.68;71.81;101233.56;5027601;28;45443;-61
2023/01/12 00:51:33;;;;;;;;;2.50;2.00;;;;;10.70;71.62;101221.31;5035130;27;45361;-63
2023/01/12 00:54:03;;;;;;;;;4.50;2.50;;;;;10.71;72.15;101217.53;5028098;28;45516;-62
2023/01/12 00:56:29;;;;;;;;;0.80;0.60;;;;;10.71;71.36;101208.44;5029706;28;45899;-60
2023/01/12 00:58:54;;;;;;;;;2.60;1.00;;;;;10.71;71.10;101192.81;5029448;28;45855;-62
2023/01/12 01:01:20;;;;;;;;;4.00;3.00;;;;;10.69;71.19;101189.41;5028518;28;45424;-61
2023/01/12 01:03:45;;;;;;;;;3.75;1.00;;;;;10.67;71.23;101175.03;5032119;28;45450;-62
2023/01/12 01:06:11;;;;;;;;;3.75;2.50;;;;;10.68;71.03;101190.47;5031153;28;45525;-62
2023/01/12 01:08:37;;;;;;;;;2.50;1.50;;;;;10.70;71.37;101188.38;5032925;28;45403;-62
2023/01/12 01:11:08;;;;;;;;;4.50;2.50;;;;;10.67;71.49;101193.44;5031012;28;45824;-62
2023/01/12 01:13:35;;;;;;;;;2.60;2.00;;;;;10.59;71.16;101191.69;5030158;28;45951;-62
2023/01/12 01:16:02;;;;;;;;;4.40;2.60;;;;;10.58;71.52;101187.25;5030627;28;46103;-62
2023/01/12 01:18:27;;;;;;;;;7.60;4.20;;;;;10.68;71.08;101201.44;5032606;28;45847;-62
2023/01/12 01:20:53;;;;;;;;;1.50;1.50;;;;;10.68;70.99;101197.88;5035410;28;45416;-63
2023/01/12 01:23:19;;;;;;;;;1.00;1.00;;;;;10.69;71.38;101194.91;5034583;28;46047;-65
2023/01/12 01:25:44;;;;;;;;;4.50;1.00;;;;;10.67;71.09;101183.28;5034127;28;46235;-65
2023/01/12 01:28:10;;;;;;;;;1.50;1.50;;;;;10.47;71.40;101150.22;5036066;28;45518;-65
2023/01/12 01:30:35;;;;;;;;;3.00;3.00;;;;;10.66;71.50;101189.81;5036478;28;45369;-65
2023/01/12 01:33:01;;;;;;;;;4.00;2.00;;;;;10.59;71.65;101175.22;5036445;28;45596;-64
2023/01/12 01:35:26;;;;;;;;;6.00;2.75;;;;;10.56;71.57;101184.69;5036049;28;45436;-64
2023/01/12 01:37:52;;;;;;;;;2.75;2.50;;;;;10.56;71.04;101195.66;5036321;28;45399;-64
2023/01/12 01:40:17;;;;;;;;;2.00;2.00;;;;;10.54;71.11;101194.16;5036428;28;45420;-64
2023/01/12 01:42:43;;;;;;;;;2.00;2.00;;;;;10.42;71.60;101172.75;5036377;28;45350;-65
2023/01/12 01:45:10;;;;;;;;;2.75;2.00;;;;;10.43;72.02;101176.38;5035911;28;45552;-64
2023/01/12 01:47:38;;;;;;;;;2.00;1.20;;;;;10.56;71.80;101197.56;5001872;28;45354;-65
2023/01/12 01:50:09;;;;;;;;;2.00;2.00;;;;;10.37;71.35;101167.03;5004196;28;45423;-65
2023/01/12 01:52:36;;;;;;;;;5.60;2.00;;;;;10.57;71.94;101174.56;5000485;28;45517;-65
2023/01/12 01:55:01;;;;;;;;;4.00;2.00;;;;;10.57;71.39;101161.69;5017393;28;46198;-64
2023/01/12 01:57:30;;;;;;;;;2.75;1.75;;;;;10.59;72.03;101161.50;5035793;28;45166;-64
2023/01/12 01:59:56;;;;;;;;;3.80;1.80;;;;;10.56;72.33;101161.88;5002289;28;45501;-63
2023/01/12 02:02:22;;;;;;;;;2.00;2.00;;;;;10.53;71.64;101159.53;5036529;28;45713;-65
2023/01/12 02:04:47;;;;;;;;;2.00;0.50;;;;;10.57;72.17;101161.69;5001521;28;46432;-65
2023/01/12 02:07:14;;;;;;;;;2.50;1.00;;;;;10.61;72.03;101175.03;5017997;28;45374;-65
2023/01/12 02:09:39;;;;;;;;;4.00;3.00;;;;;10.52;72.15;101155.94;5018075;28;45437;-65
2023/01/12 02:17:46;;;;;;;;;6.40;1.00;;;;;10.63;71.67;101183.88;5035383;28;45394;-65
2023/01/12 02:20:30;;;;;;;;;2.60;2.00;;;;;10.61;71.58;101170.34;5035966;28;45325;-65
2023/01/12 02:23:32;;;;;;;;;3.20;1.80;;;;;10.63;72.17;101160.03;5035819;28;45743;-65
2023/01/12 02:26:23;;;;;;;;;2.80;1.80;;;;;10.65;72.18;101159.81;5035445;28;45927;-65
2023/01/12 02:29:27;;;;;;;;;2.20;2.20;;;;;10.64;72.46;101156.25;5035485;28;45292;-65
2023/01/12 02:31:56;;;;;;;;;5.80;3.20;;;;;10.66;72.12;101156.88;5017887;28;45395;-65
2023/01/12 02:34:40;;;;;;;;;1.20;1.00;;;;;10.69;72.08;101155.63;5014987;28;45542;-65
2023/01/12 02:37:26;;;;;;;;;3.60;2.00;;;;;10.69;71.53;101148.22;5015523;28;47784;-65
2023/01/12 02:40:08;;;;;;;;;2.00;1.20;;;;;10.50;71.79;101108.66;5015570;28;45572;-65
2023/01/12 02:42:41;;;;;;;;;1.40;1.40;;;;;10.69;71.69;101131.75;5014782;28;45409;-65
2023/01/12 02:45:26;;;;;;;;;3.00;2.60;;;;;10.71;71.57;101126.94;5026970;28;45217;-65
2023/01/12 02:48:16;;;;;;;;;3.80;1.00;;;;;10.75;72.14;101123.75;5047890;28;45404;-64
2023/01/12 02:50:58;;;;;;;;;3.00;2.00;;;;;10.29;71.63;101043.69;5050404;28;45399;-64
2023/01/12 02:53:45;;;;;;;;;2.40;1.00;;;;;10.70;71.95;101117.00;5050763;28;45319;-64
2023/01/12 02:56:13;;;;;;;;;1.20;0.80;;;;;10.70;71.25;101107.91;5034209;28;45440;-64
2023/01/12 02:58:44;;;;;;;;;1.40;1.20;;;;;10.71;71.93;101112.34;5033864;28;46775;-63
2023/01/12 03:01:09;;;;;;;;;2.00;1.00;;;;;10.67;71.81;101078.97;5010095;28;46103;-65
2023/01/12 03:03:38;;;;;;;;;2.25;0.25;;;;;10.74;71.74;101097.38;5050538;28;45462;-64
2023/01/12 03:06:04;;;;;;;;;1.00;1.00;;;;;10.75;70.94;101088.06;5033643;28;45433;-64
2023/01/12 03:08:30;;;;;;;;;2.40;2.40;;;;;10.74;71.70;101089.13;5034990;28;46534;-64
2023/01/12 03:10:58;;;;;;;;;2.00;0.50;;;;;10.76;71.72;101079.63;5034908;28;45407;-64
2023/01/12 03:13:24;;;;;;;;;0.80;0.80;;;;;10.79;71.36;101067.41;5035129;28;45213;-64
2023/01/12 03:15:51;;;;;;;;;2.00;2.00;;;;;10.77;71.55;101091.47;5034187;28;45188;-64
2023/01/12 03:18:29;;;;;;;;;2.20;1.00;;;;;10.74;71.44;101081.75;5033070;28;45810;-65
2023/01/12 03:21:01;;;;;;;;;1.60;1.60;;;;;10.77;71.93;101075.00;5034709;28;45524;-65
2023/01/12 03:23:30;;;;;;;;;4.20;1.00;;;;;10.79;72.06;101075.63;5017172;28;45374;-65
2023/01/12 03:25:56;;;;;;;;;4.00;1.80;;;;;10.77;72.21;101055.78;5032732;28;45334;-65
2023/01/12 03:28:21;;;;;;;;;1.00;1.00;;;;;10.68;72.20;101046.88;5034293;28;46467;-65
2023/01/12 03:31:00;;;;;;;;;4.00;1.25;;;;;10.67;72.51;101054.25;5033764;28;45406;-64
2023/01/12 03:33:25;;;;;;;;;1.00;1.00;;;;;10.65;72.99;101044.53;5017259;28;45330;-66
2023/01/12 03:36:12;;;;;;;;;1.00;1.00;;;;;10.69;72.34;101052.13;5050283;28;45467;-65
2023/01/12 03:38:52;;;;;;;;;1.20;1.20;;;;;10.74;72.45;101058.94;5034500;28;46316;-65
2023/01/12 03:41:29;;;;;;;;;1.00;1.00;;;;;10.56;73.10;101031.00;5034322;28;45358;-65
2023/01/12 03:43:57;;;;;;;;;1.80;1.00;;;;;10.70;72.92;101059.34;5034215;28;45208;-65
2023/01/12 03:46:26;;;;;;;;;1.20;0.80;;;;;10.54;72.85;101002.06;5016340;28;45399;-65
2023/01/12 03:48:57;;;;;;;;;2.00;2.00;;;;;10.74;73.20;101056.19;5016571;28;46824;-65
2023/01/12 03:51:26;;;;;;;;;2.40;1.20;;;;;10.67;73.14;101026.81;5032836;28;45350;-66
2023/01/12 03:53:51;;;;;;;;;2.20;0.60;;;;;10.73;73.44;101046.25;5016915;28;45313;-65
2023/01/12 03:56:18;;;;;;;;;4.75;1.75;;;;;10.73;72.97;101035.28;5033105;28;45552;-65
2023/01/12 03:58:44;;;;;;;;;1.40;1.40;;;;;10.71;73.63;101030.84;5049701;28;46543;-65
2023/01/12 04:01:09;;;;;;;;;2.00;1.00;;;;;10.70;73.36;101036.53;5033082;28;45368;-65
2023/01/12 04:03:35;;;;;;;;;0.25;0.00;;;;;10.72;73.42;101034.41;5016451;28;45475;-65
2023/01/12 04:06:00;;;;;;;;;1.00;1.00;;;;;10.71;73.45;101024.50;5049735;28;45821;-63
2023/01/12 04:08:26;;;;;;;;;3.75;2.00;;;;;10.69;73.78;101001.91;5032384;28;47756;-65
2023/01/12 04:10:51;;;;;;;;;4.25;3.00;;;;;10.57;73.59;100994.25;5034295;28;45467;-64
2023/01/12 04:13:17;;;;;;;;;3.00;2.00;;;;;10.66;74.02;101014.13;5033991;28;45561;-63
2023/01/12 04:15:42;;;;;;;;;1.00;1.00;;;;;10.65;73.94;100995.13;5034253;28;45351;-64
2023/01/12 04:18:08;;;;;;;;;2.00;2.00;;;;;10.64;73.84;100985.19;5033963;28;45576;-64
2023/01/12 04:20:34;;;;;;;;;4.80;0.00;;;;;10.63;73.78;100989.00;5033910;28;45416;-65
2023/01/12 04:23:00;;;;;;;;;2.00;2.00;;;;;10.66;74.14;100988.56;5032828;28;45413;-65
2023/01/12 04:25:25;;;;;;;;;2.00;1.00;;;;;10.69;73.30;100980.75;5032729;28;45512;-64
2023/01/12 04:27:55;;;;;;;;;2.75;1.00;;;;;10.70;73.33;100984.38;5033902;28;45868;-64
2023/01/12 04:30:23;;;;;;;;;2.20;1.80;;;;;10.70;73.23;100981.63;5033840;28;45356;-64
2023/01/12 04:32:49;;;;;;;;;0.00;0.00;;;;;10.71;73.25;100973.19;5034203;28;45357;-64
2023/01/12 04:35:17;;;;;;;;;2.00;0.75;;;;;10.74;73.10;100951.84;5033983;28;45492;-65
2023/01/12 04:37:43;;;;;;;;;4.20;3.20;;;;;10.76;73.03;100964.31;5034521;28;47534;-65
2023/01/12 04:40:10;;;;;;;;;1.50;1.00;;;;;10.76;72.90;100947.00;5036688;28;45264;-65
2023/01/12 04:45:19;;;;;;;;;4.40;2.60;;;;;10.78;72.60;100961.38;5037871;28;45197;-64
2023/01/12 04:47:44;;;;;;;;;3.00;1.50;;;;;10.77;72.70;100981.66;5037349;28;45821;-64
2023/01/12 04:50:10;;;;;;;;;2.25;1.25;;;;;10.80;72.97;100976.59;5037968;28;45603;-66
2023/01/12 04:52:36;;;;;;;;;2.75;2.00;;;;;10.59;72.96;100941.91;5037393;28;45448;-65
2023/01/12 04:55:02;;;;;;;;;1.50;1.00;;;;;10.82;72.44;100974.47;5037879;28;45527;-66
2023/01/12 04:57:28;;;;;;;;;2.00;1.20;;;;;10.86;72.82;100974.91;5019512;28;45598;-64
2023/01/12 04:59:53;;;;;;;;;3.00;3.00;;;;;10.87;72.75;100965.59;4986353;28;45486;-66
2023/01/12 05:02:18;;;;;;;;;6.25;3.25;;;;;10.88;72.42;100952.75;5037628;28;45333;-66
2023/01/12 05:04:47;;;;;;;;;1.50;1.50;;;;;10.89;72.05;100959.91;5037123;28;45539;-66
2023/01/12 05:07:13;;;;;;;;;1.40;1.00;;;;;10.90;73.02;100954.22;5036966;28;46374;-65
2023/01/12 05:12:22;;;;;;;;;1.40;0.40;;;;;10.78;72.79;100928.44;5017211;28;46039;-62
2023/01/12 05:14:48;;;;;;;;;2.75;1.25;;;;;10.90;72.81;100961.59;5017443;28;45435;-64
2023/01/12 05:17:14;;;;;;;;;1.00;1.00;;;;;10.71;72.92;100921.03;5036385;28;46352;-66
2023/01/12 05:19:40;;;;;;;;;2.60;2.60;;;;;10.82;72.82;100929.69;5019057;28;45258;-66
2023/01/12 05:22:06;;;;;;;;;8.00;1.25;;;;;10.90;72.70;100956.97;5019106;28;45467;-66
2023/01/12 05:24:32;;;;;;;;;1.00;0.50;;;;;10.86;72.75;100933.72;5019708;28;45635;-66
2023/01/12 05:26:59;;;;;;;;;2.80;2.80;;;;;10.89;72.75;100943.44;5036645;28;46640;-65
2023/01/12 05:29:25;;;;;;;;;5.40;1.00;;;;;10.76;72.49;100914.91;5036785;28;45319;-66
2023/01/12 05:31:50;;;;;;;;;3.75;2.50;;;;;10.94;72.98;100938.19;5036873;28;45264;-65
2023/01/12 05:34:18;;;;;;;;;1.25;1.00;;;;;10.95;72.68;100950.84;5036997;28;45662;-63
2023/01/12 05:36:44;;;;;;;;;3.40;2.00;;;;;10.78;72.42;100911.97;4999623;28;46903;-64
2023/01/12 05:39:10;;;;;;;;;2.20;1.00;;;;;10.93;72.80;100934.56;5016716;28;45412;-65
2023/01/12 05:41:35;;;;;;;;;2.50;2.50;;;;;10.93;72.42;100942.81;5015697;28;45519;-65
2023/01/12 05:44:01;;;;;;;;;3.00;1.50;;;;;10.98;72.56;100939.44;5018733;28;45309;-65
2023/01/12 05:46:29;;;;;;;;;1.25;0.00;;;;;11.00;72.42;100947.47;5035048;28;45413;-65
2023/01/12 05:48:55;;;;;;;;;1.40;1.00;;;;;11.00;72.86;100945.56;5033593;28;45433;-65
2023/01/12 05:51:20;;;;;;;;;3.60;1.20;;;;;10.97;72.77;100937.75;5036480;28;45279;-65
2023/01/12 05:53:46;;;;;;;;;3.75;1.25;;;;;10.97;72.49;100943.22;5018603;28;45531;-65
2023/01/12 05:56:16;;;;;;;;;2.25;1.25;;;;;11.00;72.88;100952.94;5034799;28;48044;-65
2023/01/12 05:58:41;;;;;;;;;1.80;1.80;;;;;11.03;72.75;100960.75;5035795;28;45280;-65
2023/01/12 06:01:08;;;;;;;;;1.25;0.75;;;;;11.01;72.57;100966.50;5036468;28;45774;-65
2023/01/12 06:03:34;;;;;;;;;0.00;0.00;;;;;11.00;72.55;100951.06;5051733;28;45408;-65
2023/01/12 06:05:59;;;;;;;;;1.80;1.20;;;;;11.01;72.84;100952.75;5035868;28;46843;-65
2023/01/12 06:08:25;;;;;;;;;2.00;1.00;;;;;11.03;73.09;100960.75;5035840;28;45418;-66
2023/01/12 06:10:51;;;;;;;;;1.50;1.00;;;;;11.03;73.62;100958.00;5036304;28;45241;-65
2023/01/12 06:16:05;;;;;;;;;3.40;1.00;;;;;10.96;73.88;100931.41;5035959;28;45832;-64
2023/01/12 06:18:38;;;;;;;;;7.20;1.60;;;;;11.04;73.61;100930.34;5050966;28;45330;-64
2023/01/12 06:21:04;;;;;;;;;0.00;0.00;;;;;11.06;73.96;100932.88;5051685;28;45383;-66
2023/01/12 06:23:29;;;;;;;;;1.00;1.00;;;;;10.71;73.65;100874.34;5036081;28;45341;-65
2023/01/12 06:25:55;;;;;;;;;0.75;0.50;;;;;11.02;74.38;100931.59;5035887;28;45513;-64
2023/01/12 06:28:20;;;;;;;;;3.25;1.50;;;;;11.00;74.00;100939.22;5034116;28;45199;-64
2023/01/12 06:30:55;;;;;;;;;4.00;3.00;;;;;11.01;73.91;100949.16;5035985;28;45465;-65
2023/01/12 06:33:20;;;;;;;;;3.40;1.00;;;;;10.97;74.45;100957.81;5035601;28;45354;-66
2023/01/12 06:35:49;;;;;;;;;0.75;0.75;;;;;10.95;73.76;100962.66;5033918;28;45376;-65
2023/01/12 06:38:14;;;;;;;;;1.00;0.80;;;;;10.77;74.22;100929.50;5035325;28;45373;-65
2023/01/12 06:40:40;;;;;;;;;0.75;0.50;;;;;10.92;74.53;100954.84;5035983;28;45336;-65
2023/01/12 06:43:06;;;;;;;;;3.00;1.75;;;;;10.94;74.13;100980.19;5035866;28;45553;-65
2023/01/12 06:45:31;;;;;;;;;1.50;1.25;;;;;10.98;74.03;100976.00;5033269;28;46337;-65
2023/01/12 06:47:57;;;;;;;;;2.50;1.25;;;;;10.98;74.15;100981.47;5035608;28;45411;-65
2023/01/12 06:50:23;;;;;;;;;1.60;0.00;;;;;10.99;73.63;100985.06;5035020;28;45464;-65
2023/01/12 06:52:49;;;;;;;;;5.75;1.50;;;;;11.02;74.08;100984.66;5035770;28;45483;-65
2023/01/12 06:55:14;;;;;;;;;2.50;0.25;;;;;11.00;73.53;100969.44;5034933;28;45996;-65
2023/01/12 06:57:40;;;;;;;;;0.50;0.50;;;;;11.05;73.96;100991.63;5033528;28;45571;-65
2023/01/12 07:00:06;;;;;;;;;1.75;0.50;;;;;11.03;74.46;100980.84;5033929;28;45595;-65
2023/01/12 07:02:32;;;;;;;;;4.40;2.00;;;;;11.08;74.57;100983.81;5033803;28;45423;-65
2023/01/12 07:04:57;;;;;;;;;1.25;0.00;;;;;11.10;74.81;100980.88;5035210;28;46082;-65
2023/01/12 07:07:23;;;;;;;;;0.75;0.75;;;;;11.07;75.35;100990.38;5034642;28;45380;-65
2023/01/12 07:09:48;;;;;;;;;2.50;1.50;;;;;11.01;76.28;100993.09;5035155;28;45428;-65
2023/01/12 07:12:14;;;;;;;;;2.00;1.00;;;;;11.00;76.22;100977.69;5035250;28;45355;-65
2023/01/12 07:14:40;;;;;;;;;1.00;1.00;;;;;11.06;76.12;100985.91;5034529;28;46293;-65
2023/01/12 07:17:05;;;;;;;;;1.75;1.75;;;;;11.08;76.21;100977.47;5035178;28;45387;-64
2023/01/12 07:19:31;;;;;;;;;3.00;1.00;;;;;11.04;76.42;100960.56;5035007;28;45356;-66
2023/01/12 07:21:56;;;;;;;;;1.75;1.25;;;;;11.06;76.63;100952.13;5035315;28;45503;-64
2023/01/12 07:24:22;;;;;;;;;1.25;0.00;;;;;11.03;76.75;100958.88;5034646;28;45645;-65
2023/01/12 07:26:48;;;;;;;;;5.00;2.00;;;;;10.92;76.81;100935.63;5034703;28;45316;-65
2023/01/12 07:29:14;;;;;;;;;1.00;1.00;;;;;11.02;76.72;100962.69;5016868;28;45380;-65
2023/01/12 07:31:40;;;;;;;;;5.00;1.00;;;;;10.98;76.73;100961.41;4988603;28;45601;-64
2023/01/12 07:34:08;;;;;;;;;1.00;1.00;;;;;11.02;76.88;100961.81;5014672;28;45464;-65
2023/01/12 07:36:33;;;;;;;;;2.20;2.20;;;;;11.06;76.78;100968.59;5062625;28;45357;-64
2023/01/12 07:38:59;;;;;;;;;2.25;1.25;;;;;11.07;76.40;100967.53;5034675;28;45331;-64
2023/01/12 07:44:09;;;;;;;;;3.00;3.00;;;;;11.06;75.80;100961.19;5033216;28;47343;-64
2023/01/12 07:46:34;;;;;;;;;6.50;4.00;;;;;11.07;75.52;100962.91;5016485;28;45362;-63
2023/01/12 07:49:00;;;;;;;;;1.50;1.00;;;;;11.10;75.70;100969.88;5034426;28;45423;-64
2023/01/12 07:51:25;;;;;;;;;1.50;1.00;;;;;11.12;75.44;100965.00;5017367;28;45318;-64
2023/01/12 07:53:51;;;;;;;;;2.50;1.25;;;;;11.14;75.56;100951.91;5033999;28;45478;-65
2023/01/12 07:56:17;;;;;;;;;1.25;1.00;;;;;11.15;75.42;100961.84;5034709;28;45304;-64
2023/01/12 07:58:45;;;;;;;;;1.80;1.40;;;;;11.17;75.18;100970.72;5034535;28;45442;-64
2023/01/12 08:01:11;;;;;;;;;2.20;1.60;;;;;11.03;75.37;100936.91;5034212;28;45621;-64
2023/01/12 08:03:37;;;;;;;;;2.75;2.00;;;;;11.15;74.92;100961.84;5000023;28;47179;-65
2023/01/12 08:06:03;;;;;;;;;2.00;2.00;;;;;11.16;74.68;100963.50;5016203;28;45465;-65
2023/01/12 08:08:29;;;;;;;;;1.25;1.25;;;;;11.03;75.14;100941.53;5034566;28;45473;-65
2023/01/12 08:10:59;;;;;;;;;2.00;1.25;;;;;10.93;74.62;100918.09;5016320;28;45427;-67
2023/01/12 08:13:24;;;;;;;;;3.00;2.00;;;;;11.22;75.00;100972.84;5016352;28;45517;-64
2023/01/12 08:15:50;;;;;;;;;3.75;2.00;;;;;11.23;74.79;100969.03;5033065;28;45327;-66
2023/01/12 08:18:19;;;;;;;;;3.50;2.75;;;;;11.25;74.96;100975.16;5034262;28;45340;-67
2023/01/12 08:20:44;;;;;;;;;4.20;1.20;;;;;11.30;74.70;100964.38;5016496;28;45395;-67
2023/01/12 08:23:16;;;;;;;;;1.00;1.00;;;;;11.30;74.99;100952.56;5033780;28;45794;-66
2023/01/12 08:25:43;;;;;;;;;1.80;1.80;;;;;11.32;74.82;100953.19;5015735;28;45438;-66
2023/01/12 08:28:15;;;;;;;;;0.80;0.20;;;;;11.22;74.53;100954.44;5034034;28;45397;-67
2023/01/12 08:30:41;;;;;;;;;1.00;1.00;;;;;11.32;74.96;100962.25;4999971;28;45498;-65
2023/01/12 08:33:06;;;;;;;;;3.00;0.75;;;;;11.36;74.80;100968.16;4995883;28;45569;-65
2023/01/12 08:35:32;;;;;;;;;4.00;2.50;;;;;11.37;75.40;100975.38;5021131;28;45497;-64
2023/01/12 08:37:57;;;;;;;;;2.00;0.00;;;;;11.35;75.02;100961.84;5033783;28;45363;-64
2023/01/12 08:41:30;;;;;;;;;1.50;1.50;;;;;11.35;74.88;100952.75;5016128;28;45406;-64
2023/01/12 08:43:09;;;;;;;;;1.00;1.00;;;;;11.37;75.11;100976.22;5018074;28;46059;-64
2023/01/12 08:45:34;;;;;;;;;2.00;1.00;;;;;11.35;75.47;100967.34;5033434;28;45599;-64
2023/01/12 08:48:00;;;;;;;;;2.75;1.75;;;;;11.31;75.29;100952.31;5033669;28;45358;-66
2023/01/12 08:50:25;;;;;;;;;2.00;2.00;;;;;11.39;75.33;100974.09;5023314;28;45537;-68
2023/01/12 08:52:51;;;;;;;;;1.25;1.25;;;;;10.76;75.26;100862.75;4995575;28;45505;-66
2023/01/12 08:55:16;;;;;;;;;3.25;3.00;;;;;11.45;75.53;100972.41;4996251;28;45287;-67
2023/01/12 08:57:42;;;;;;;;;2.50;2.00;;;;;10.85;75.38;100868.88;5014250;28;45419;-67
2023/01/12 09:00:08;;;;;;;;;2.00;0.00;;;;;11.41;75.90;100967.56;5013991;28;45446;-67
2023/01/12 09:02:33;;;;;;;;;3.00;0.40;;;;;11.50;76.15;100980.03;5012313;28;46743;-67
2023/01/12 09:04:59;;;;;;;;;1.75;1.75;;;;;11.30;76.01;100945.16;5012530;28;45315;-69
2023/01/12 09:07:25;;;;;;;;;3.25;1.50;;;;;11.48;76.29;100980.22;5013582;28;45360;-68
2023/01/12 09:09:50;;;;;;;;;3.00;2.00;;;;;11.50;77.12;100988.25;4995892;28;45592;-67
2023/01/12 09:12:16;;;;;;;;;2.00;1.00;;;;;11.48;76.81;100985.72;5013353;28;45387;-66
2023/01/12 09:14:41;;;;;;;;;5.50;3.00;;;;;11.48;77.11;100977.47;5012017;28;45817;-68
2023/01/12 09:17:07;;;;;;;;;2.00;2.00;;;;;11.47;77.66;100981.28;5014022;28;45793;-69
2023/01/12 09:19:32;;;;;;;;;4.00;2.00;;;;;11.48;77.91;100990.38;4979085;28;45556;-69
2023/01/12 09:21:58;;;;;;;;;1.00;1.00;;;;;11.48;78.17;100976.66;5013462;28;45463;-69
2023/01/12 09:24:23;;;;;;;;;0.50;0.00;;;;;11.48;78.37;100982.13;5013924;28;45383;-68
2023/01/12 09:26:49;;;;;;;;;0.00;0.00;;;;;11.32;78.29;100959.50;4999059;28;45357;-67
2023/01/12 09:29:14;;;;;;;;;3.50;1.00;;;;;11.49;78.07;100981.91;5016885;28;45430;-62
2023/01/12 09:31:41;;;;;;;;;2.25;1.00;;;;;11.46;78.47;100986.97;5016596;28;46621;-65
2023/01/12 09:34:07;;;;;;;;;1.80;1.80;;;;;11.41;78.53;100979.38;5016732;28;45162;-65
2023/01/12 09:36:34;;;;;;;;;0.25;0.25;;;;;11.42;78.94;100983.81;5008792;28;45808;-65
2023/01/12 09:39:00;;;;;;;;;2.40;1.00;;;;;11.46;78.60;100990.59;4997303;28;45535;-65
2023/01/12 09:47:38;;;;;;;;;1.40;1.00;;;;;11.47;78.49;100992.28;5036164;28;45441;-65
2023/01/12 09:50:11;;;;;;;;;3.20;2.80;;;;;11.46;78.40;100995.22;5034496;28;45550;-64
2023/01/12 09:52:42;;;;;;;;;4.40;2.00;;;;;11.46;78.33;100986.97;5033555;28;46443;-64
2023/01/12 09:55:21;;;;;;;;;2.80;1.80;;;;;11.40;78.14;100969.44;5034634;28;45417;-64
2023/01/12 09:58:32;;;;;;;;;3.00;2.00;;;;;11.46;78.19;100978.75;5035190;28;45794;-61
2023/01/12 10:00:58;;;;;;;;;4.40;2.80;;;;;11.47;78.36;100984.03;5018650;28;45449;-62
2023/01/12 10:03:37;;;;;;;;;2.50;1.00;;;;;11.34;77.89;100953.81;5034983;28;46259;-62
2023/01/12 10:06:03;;;;;;;;;0.40;0.40;;;;;11.51;77.99;100984.44;5016913;28;45446;-63
2023/01/12 10:08:45;;;;;;;;;2.20;1.00;;;;;11.48;78.02;100979.41;5034866;28;45465;-63
2023/01/12 10:11:24;;;;;;;;;3.40;1.00;;;;;11.55;77.43;100987.63;5031980;28;45469;-65
2023/01/12 10:13:56;;;;;;;;;0.40;0.40;;;;;11.55;77.95;100982.13;5032970;28;45876;-64
2023/01/12 10:16:55;;;;;;;;;1.00;1.00;;;;;11.38;77.12;100955.91;5034486;28;45715;-64
2023/01/12 10:19:29;;;;;;;;;0.00;0.00;;;;;11.63;77.29;100992.94;4967571;28;45331;-64
2023/01/12 10:21:55;;;;;;;;;0.60;0.60;;;;;11.63;76.91;100979.19;5033093;28;45938;-65
2023/01/12 10:24:22;;;;;;;;;2.25;2.25;;;;;11.66;77.43;101000.72;5033976;28;46831;-66
2023/01/12 10:26:51;;;;;;;;;2.60;1.20;;;;;11.61;77.58;100986.78;5016134;28;45435;-63
2023/01/12 10:29:17;;;;;;;;;3.80;1.20;;;;;11.62;78.37;100992.06;5033171;28;45435;-64
2023/01/12 10:31:43;;;;;;;;;1.00;0.80;;;;;11.61;78.59;100981.28;5034452;28;45358;-65
2023/01/12 10:34:10;;;;;;;;;0.75;0.75;;;;;11.56;79.08;100989.31;5033888;28;45466;-65
2023/01/12 10:36:48;;;;;;;;;0.80;0.80;;;;;11.56;79.40;100981.91;5032054;28;45340;-65
2023/01/12 10:39:43;;;;;;;;;1.00;1.00;;;;;11.41;79.41;100946.41;5015949;28;45272;-63
2023/01/12 10:43:17;;;;;;;;;2.80;1.00;;;;;11.39;79.38;100951.28;5023245;28;46070;-64
2023/01/12 10:45:16;;;;;;;;;7.20;4.20;;;;;11.55;78.51;100980.22;5047769;28;45427;-64
2023/01/12 10:47:42;;;;;;;;;1.00;1.00;;;;;11.60;78.81;100985.09;5050737;28;45886;-64
2023/01/12 10:50:28;;;;;;;;;1.80;0.80;;;;;11.58;78.81;100970.72;5049383;28;45550;-64
2023/01/12 10:53:10;;;;;;;;;3.20;1.80;;;;;11.64;78.72;100970.69;5046440;28;45484;-63
2023/01/12 10:55:38;;;;;;;;;0.40;0.40;;;;;11.59;78.86;100969.66;5049127;28;45783;-63
2023/01/12 10:58:04;;;;;;;;;3.40;1.00;;;;;11.64;78.90;100967.13;5081993;27;45407;-64
2023/01/12 11:00:29;;;;;;;;;3.00;1.50;;;;;11.61;78.72;100964.78;5066241;28;45380;-64
2023/01/12 11:02:55;;;;;;;;;4.00;2.75;;;;;11.68;78.70;100962.88;5049826;28;45865;-65
2023/01/12 11:05:35;;;;;;;;;2.50;2.00;;;;;11.64;78.47;100967.13;5065789;28;45921;-64
2023/01/12 11:08:01;;;;;;;;;2.40;1.60;;;;;11.42;78.82;100925.28;5048299;28;45892;-64
2023/01/12 11:10:31;;;;;;;;;1.00;1.00;;;;;11.64;78.49;100961.63;5050664;28;45456;-64
2023/01/12 11:12:59;;;;;;;;;2.00;1.00;;;;;11.65;78.32;100947.63;5049713;28;45571;-64
2023/01/12 11:15:25;;;;;;;;;2.00;2.00;;;;;11.69;78.25;100942.56;5045816;28;45640;-65
2023/01/12 11:18:16;;;;;;;;;3.25;2.75;;;;;11.70;77.93;100941.53;5049078;28;45485;-65
2023/01/12 11:20:48;;;;;;;;;3.60;1.80;;;;;11.59;77.49;100911.94;5044732;28;45464;-64
2023/01/12 11:23:16;;;;;;;;;1.00;1.00;;;;;11.66;76.87;100896.25;5048677;28;45420;-65
2023/01/12 11:25:43;;;;;;;;;3.00;2.20;;;;;11.86;77.00;100939.34;5066317;28;46085;-64
2023/01/12 11:28:33;;;;;;;;;1.00;1.00;;;;;11.88;76.82;100926.22;5062459;28;45452;-64
2023/01/12 11:31:11;;;;;;;;;3.60;2.00;;;;;11.92;76.54;100924.75;5030622;28;45892;-64
2023/01/12 11:33:45;;;;;;;;;0.60;0.60;;;;;11.95;76.41;100918.78;5057648;28;45383;-64
2023/01/12 11:36:14;;;;;;;;;1.40;1.40;;;;;11.94;76.04;100919.84;5049171;28;46054;-65
2023/01/12 11:38:56;;;;;;;;;2.00;2.00;;;;;11.98;76.50;100909.25;5049279;28;45412;-65
2023/01/12 11:41:38;;;;;;;;;1.80;1.00;;;;;11.99;76.94;100925.56;5036354;28;45440;-65
2023/01/12 11:44:19;;;;;;;;;1.60;1.40;;;;;11.98;76.70;100926.63;5044181;28;45556;-64
2023/01/12 11:46:52;;;;;;;;;1.20;0.80;;;;;11.91;76.91;100921.13;5026480;28;46388;-63
2023/01/12 11:49:28;;;;;;;;;2.40;1.00;;;;;11.92;77.20;100922.00;5028595;28;45394;-63
2023/01/12 11:51:55;;;;;;;;;4.20;1.60;;;;;11.89;77.37;100911.41;5028882;28;45784;-64
2023/01/12 11:54:21;;;;;;;;;3.00;2.00;;;;;11.96;77.43;100911.41;5028942;28;45516;-64
2023/01/12 11:57:05;;;;;;;;;1.00;1.00;;;;;12.01;77.09;100917.94;5011275;28;46285;-63
2023/01/12 11:59:56;;;;;;;;;1.20;1.20;;;;;12.02;77.30;100910.53;5017020;28;45510;-63